createdAt,value
2023-05-05T00:02:19.693Z,63.82
2023-05-05T00:04:47.928Z,63.97
2023-05-05T00:07:15.701Z,63.75
2023-05-05T00:09:43.994Z,64.53
2023-05-05T00:12:12.926Z,64.70
2023-05-05T00:14:40.680Z,65.06
2023-05-05T00:17:08.449Z,64.88
2023-05-05T00:19:38.072Z,64.57
2023-05-05T00:22:06.001Z,65.26
2023-05-05T00:24:33.781Z,66.03
2023-05-05T00:27:02.547Z,65.96
2023-05-05T00:29:30.488Z,66.08
2023-05-05T00:31:58.265Z,67.82
2023-05-05T00:34:27.161Z,67.18
2023-05-05T00:36:56.278Z,66.56
2023-05-05T00:39:24.254Z,66.69
2023-05-05T00:41:54.569Z,66.69
2023-05-05T00:44:37.153Z,66.97
2023-05-05T00:47:05.513Z,67.38
2023-05-05T00:49:34.675Z,67.07
2023-05-05T00:52:05.539Z,67.24
2023-05-05T00:54:34.498Z,67.37
2023-05-05T00:57:02.844Z,67.36
2023-05-05T00:59:32.007Z,67.49
2023-05-05T01:01:59.904Z,67.46
2023-05-05T01:04:28.272Z,67.09
2023-05-05T01:07:10.060Z,66.55
2023-05-05T01:09:45.639Z,66.61
2023-05-05T01:12:25.693Z,66.34
2023-05-05T01:15:02.881Z,66.40
2023-05-05T01:17:38.826Z,66.25
2023-05-05T01:20:17.202Z,66.02
2023-05-05T01:22:52.574Z,66.36
2023-05-05T01:25:37.035Z,66.65
2023-05-05T01:28:29.113Z,66.91
2023-05-05T01:31:24.938Z,66.79
2023-05-05T01:34:02.004Z,66.92
2023-05-05T01:36:35.774Z,67.24
2023-05-05T01:39:06.175Z,67.59
2023-05-05T01:41:41.000Z,67.49
2023-05-05T01:44:11.709Z,66.78
2023-05-05T01:46:39.330Z,67.28
2023-05-05T01:49:10.969Z,67.31
2023-05-05T01:51:40.730Z,67.80
2023-05-05T01:54:09.762Z,67.70
2023-05-05T01:56:41.006Z,68.38
2023-05-05T01:59:09.927Z,69.25
2023-05-05T02:01:44.996Z,70.06
2023-05-05T02:04:15.317Z,69.71
2023-05-05T02:06:46.717Z,69.49
2023-05-05T02:09:16.021Z,69.71
2023-05-05T02:11:44.369Z,69.44
2023-05-05T02:14:13.815Z,69.74
2023-05-05T02:16:43.374Z,69.84
2023-05-05T02:19:12.508Z,70.78
2023-05-05T02:21:42.470Z,70.86
2023-05-05T02:24:10.442Z,70.99
2023-05-05T02:26:41.087Z,70.84
2023-05-05T02:29:15.329Z,70.66
2023-05-05T02:31:46.736Z,70.59
2023-05-05T02:34:17.927Z,70.38
2023-05-05T02:36:48.779Z,70.49
2023-05-05T02:39:29.280Z,70.70
2023-05-05T02:42:00.233Z,70.58
2023-05-05T02:44:30.930Z,70.60
2023-05-05T02:46:59.473Z,70.88
2023-05-05T02:49:27.271Z,70.94
2023-05-05T02:51:58.418Z,71.12
2023-05-05T02:54:26.309Z,71.22
2023-05-05T02:56:56.288Z,70.92
2023-05-05T02:59:32.974Z,70.76
2023-05-05T03:02:12.105Z,70.62
2023-05-05T03:04:42.847Z,70.64
2023-05-05T03:07:16.598Z,70.96
2023-05-05T03:09:48.499Z,70.72
2023-05-05T03:12:22.212Z,71.29
2023-05-05T03:14:52.660Z,70.99
2023-05-05T03:17:22.978Z,70.93
2023-05-05T03:19:52.136Z,71.28
2023-05-05T03:22:21.530Z,71.31
2023-05-05T03:24:52.662Z,71.35
2023-05-05T03:27:21.181Z,70.43
2023-05-05T03:29:48.931Z,70.17
2023-05-05T03:32:17.447Z,70.42
2023-05-05T03:34:45.169Z,70.62
2023-05-05T03:37:12.814Z,70.72
2023-05-05T03:39:42.221Z,70.73
2023-05-05T03:42:09.945Z,71.37
2023-05-05T03:44:37.639Z,71.52
2023-05-05T03:47:06.822Z,71.06
2023-05-05T03:49:34.629Z,71.00
2023-05-05T03:52:02.764Z,71.90
2023-05-05T03:54:31.587Z,71.64
2023-05-05T03:57:00.595Z,71.03
2023-05-05T03:59:28.744Z,70.88
2023-05-05T04:01:57.100Z,70.36
2023-05-05T04:04:24.974Z,70.29
2023-05-05T04:06:53.876Z,70.05
2023-05-05T04:09:21.603Z,69.91
2023-05-05T04:11:49.331Z,69.90
2023-05-05T04:14:18.816Z,69.10
2023-05-05T04:16:46.506Z,68.68
2023-05-05T04:19:14.163Z,68.13
2023-05-05T04:21:42.226Z,67.70
2023-05-05T04:24:10.281Z,66.99
2023-05-05T04:26:37.982Z,67.13
2023-05-05T04:29:07.012Z,67.22
2023-05-05T04:31:36.165Z,67.46
2023-05-05T04:34:04.429Z,67.41
2023-05-05T04:36:32.121Z,67.25
2023-05-05T04:38:59.879Z,66.64
2023-05-05T04:41:30.026Z,66.83
2023-05-05T04:43:57.932Z,65.98
2023-05-05T04:46:26.209Z,65.13
2023-05-05T04:48:56.485Z,65.14
2023-05-05T04:51:24.536Z,66.05
2023-05-05T04:53:52.226Z,66.80
2023-05-05T04:56:20.341Z,65.76
2023-05-05T04:58:48.065Z,65.10
2023-05-05T05:01:16.187Z,65.08
2023-05-05T05:03:44.066Z,65.56
2023-05-05T05:06:14.393Z,65.48
2023-05-05T05:08:42.306Z,65.25
2023-05-05T05:11:10.238Z,64.94
2023-05-05T05:13:38.317Z,64.69
2023-05-05T05:16:07.637Z,64.11
2023-05-05T05:18:36.615Z,63.88
2023-05-05T05:21:04.649Z,64.29
2023-05-05T05:23:33.760Z,65.19
2023-05-05T05:26:02.410Z,64.79
2023-05-05T05:28:30.523Z,63.71
2023-05-05T05:30:58.912Z,63.04
2023-05-05T05:33:26.626Z,62.05
2023-05-05T05:35:54.586Z,62.81
2023-05-05T05:38:22.340Z,61.99
2023-05-05T05:40:51.320Z,61.99
2023-05-05T05:43:19.325Z,61.67
2023-05-05T05:45:47.222Z,62.21
2023-05-05T05:48:16.241Z,62.02
2023-05-05T05:50:43.869Z,61.74
2023-05-05T05:53:11.977Z,62.91
2023-05-05T05:55:39.618Z,60.06
2023-05-05T05:58:09.094Z,58.95
2023-05-05T06:00:36.790Z,58.14
2023-05-05T06:03:05.067Z,58.31
2023-05-05T06:05:33.579Z,59.48
2023-05-05T06:08:02.292Z,61.21
2023-05-05T06:10:31.498Z,60.37
2023-05-05T06:12:59.332Z,60.93
2023-05-05T06:15:28.796Z,58.52
2023-05-05T06:17:56.592Z,58.50
2023-05-05T06:20:24.807Z,57.36
2023-05-05T06:22:52.788Z,57.02
2023-05-05T06:25:20.482Z,57.36
2023-05-05T06:27:49.259Z,56.85
2023-05-05T06:30:17.710Z,58.92
2023-05-05T06:32:47.179Z,59.84
2023-05-05T06:35:14.917Z,59.05
2023-05-05T06:37:44.000Z,57.86
2023-05-05T06:40:12.649Z,57.64
2023-05-05T06:42:40.321Z,57.90
2023-05-05T06:45:09.183Z,58.34
2023-05-05T06:47:38.759Z,57.72
2023-05-05T06:50:10.489Z,56.54
2023-05-05T06:52:38.690Z,56.98
2023-05-05T06:55:07.338Z,56.14
2023-05-05T06:57:35.069Z,56.83
2023-05-05T07:00:06.143Z,57.65
2023-05-05T07:02:34.129Z,57.16
2023-05-05T07:05:01.905Z,58.40
2023-05-05T07:07:33.416Z,58.30
2023-05-05T07:10:01.305Z,57.64
2023-05-05T07:12:31.378Z,57.50
2023-05-05T07:14:59.968Z,57.54
2023-05-05T07:17:28.392Z,56.17
2023-05-05T07:19:56.108Z,56.12
2023-05-05T07:22:24.379Z,55.99
2023-05-05T07:24:53.827Z,55.95
2023-05-05T07:27:23.588Z,55.90
2023-05-05T07:29:51.396Z,55.69
2023-05-05T07:32:19.539Z,55.38
2023-05-05T07:34:47.252Z,56.42
2023-05-05T07:37:14.920Z,54.96
2023-05-05T07:39:43.360Z,54.62
2023-05-05T07:42:12.493Z,54.81
2023-05-05T07:44:40.242Z,54.55
2023-05-05T07:47:09.077Z,54.81
2023-05-05T07:49:36.807Z,55.09
2023-05-05T07:52:04.899Z,54.31
2023-05-05T07:54:33.699Z,54.79
2023-05-05T07:57:01.788Z,54.83
2023-05-05T07:59:30.991Z,54.12
2023-05-05T08:01:59.147Z,53.03
2023-05-05T08:04:26.967Z,54.01
2023-05-05T08:06:54.723Z,53.95
2023-05-05T08:09:23.613Z,54.92
2023-05-05T08:11:51.629Z,53.12
2023-05-05T08:14:19.695Z,52.56
2023-05-05T08:16:48.828Z,53.12
2023-05-05T08:19:28.318Z,53.59
2023-05-05T08:21:58.873Z,53.17
2023-05-05T08:24:27.800Z,53.75
2023-05-05T08:26:56.641Z,52.37
2023-05-05T08:29:25.351Z,50.94
2023-05-05T08:31:55.779Z,50.63
2023-05-05T08:34:23.840Z,50.42
2023-05-05T08:36:51.920Z,49.56
2023-05-05T08:39:20.033Z,49.89
2023-05-05T08:41:47.795Z,50.99
2023-05-05T08:44:15.652Z,51.95
2023-05-05T08:46:44.495Z,49.58
2023-05-05T08:49:16.750Z,48.89
2023-05-05T08:51:47.031Z,49.93
2023-05-05T08:54:18.217Z,49.01
2023-05-05T08:56:48.470Z,49.23
2023-05-05T08:59:16.915Z,47.89
2023-05-05T09:01:45.825Z,47.99
2023-05-05T09:04:15.771Z,46.41
2023-05-05T09:06:43.455Z,46.54
2023-05-05T09:09:11.668Z,47.42
2023-05-05T09:11:41.816Z,47.83
2023-05-05T09:14:09.494Z,47.03
2023-05-05T09:16:37.646Z,48.47
2023-05-05T09:19:06.144Z,46.95
2023-05-05T09:21:35.139Z,45.82
2023-05-05T09:24:10.287Z,45.60
2023-05-05T09:26:39.871Z,46.04
2023-05-05T09:29:07.740Z,44.54
2023-05-05T09:31:38.395Z,44.82
2023-05-05T09:34:15.447Z,45.88
2023-05-05T09:36:48.166Z,46.13
2023-05-05T09:39:17.897Z,44.50
2023-05-05T09:41:46.820Z,45.96
2023-05-05T09:44:17.483Z,45.08
2023-05-05T09:46:52.977Z,45.09
2023-05-05T09:49:24.507Z,45.98
2023-05-05T09:51:54.465Z,45.78
2023-05-05T09:54:26.784Z,42.81
2023-05-05T09:56:55.166Z,43.56
2023-05-05T09:59:23.693Z,44.31
2023-05-05T10:01:52.765Z,44.72
2023-05-05T10:04:25.314Z,44.23
2023-05-05T10:06:55.878Z,44.96
2023-05-05T10:09:23.419Z,42.82
2023-05-05T10:11:51.587Z,41.93
2023-05-05T10:14:21.267Z,43.48
2023-05-05T10:16:50.827Z,43.97
2023-05-05T10:19:19.983Z,42.00
2023-05-05T10:21:50.389Z,42.03
2023-05-05T10:24:25.752Z,41.37
2023-05-05T10:26:54.862Z,40.93
2023-05-05T10:29:32.368Z,41.07
2023-05-05T10:32:21.448Z,41.23
2023-05-05T10:34:54.664Z,42.36
2023-05-05T10:37:22.883Z,41.43
2023-05-05T10:39:53.768Z,42.92
2023-05-05T10:42:23.839Z,43.82
2023-05-05T10:44:51.625Z,45.50
2023-05-05T10:47:21.295Z,41.27
2023-05-05T10:49:57.337Z,42.52
2023-05-05T10:52:39.270Z,43.10
2023-05-05T10:55:15.204Z,43.19
2023-05-05T10:57:45.203Z,40.67
2023-05-05T11:00:52.449Z,40.71
2023-05-05T11:03:24.228Z,40.77
2023-05-05T11:06:12.855Z,41.06
2023-05-05T11:08:42.284Z,40.36
2023-05-05T11:11:13.330Z,38.95
2023-05-05T11:13:41.872Z,38.91
2023-05-05T11:16:45.100Z,40.75
2023-05-05T11:19:47.224Z,38.55
2023-05-05T11:22:16.404Z,38.67
2023-05-05T11:24:45.155Z,37.49
2023-05-05T11:27:14.204Z,38.35
2023-05-05T11:30:07.808Z,37.54
2023-05-05T11:32:36.008Z,37.90
2023-05-05T11:35:04.058Z,37.52
2023-05-05T11:37:32.191Z,37.75
2023-05-05T11:40:08.677Z,38.25
2023-05-05T11:42:38.660Z,38.15
2023-05-05T11:45:21.715Z,39.55
2023-05-05T11:47:50.049Z,38.37
2023-05-05T11:50:19.890Z,38.72
2023-05-05T11:52:48.567Z,39.51
2023-05-05T11:55:24.305Z,38.16
2023-05-05T11:57:53.806Z,37.72
2023-05-05T12:00:32.060Z,39.49
2023-05-05T12:03:00.282Z,39.31
2023-05-05T12:05:28.164Z,40.09
2023-05-05T12:07:59.940Z,40.76
2023-05-05T12:10:29.809Z,40.01
2023-05-05T12:12:59.316Z,39.79
2023-05-05T12:15:31.629Z,41.85
2023-05-05T12:18:02.148Z,42.96
2023-05-05T12:20:32.710Z,41.54
2023-05-05T12:23:01.807Z,39.67
2023-05-05T12:25:37.136Z,38.62
2023-05-05T12:28:07.077Z,38.77
2023-05-05T12:30:35.536Z,39.33
2023-05-05T12:33:05.334Z,37.94
2023-05-05T12:35:34.629Z,38.80
2023-05-05T12:38:02.506Z,41.61
2023-05-05T12:40:47.715Z,38.29
2023-05-05T12:43:31.077Z,38.13
2023-05-05T12:46:07.240Z,38.83
2023-05-05T12:48:36.111Z,38.26
2023-05-05T12:51:19.446Z,38.74
2023-05-05T12:53:47.876Z,38.40
2023-05-05T12:56:35.583Z,37.61
2023-05-05T12:59:06.924Z,39.81
2023-05-05T13:01:35.656Z,38.55
2023-05-05T13:04:09.008Z,36.90
2023-05-05T13:06:37.751Z,37.65
2023-05-05T13:09:06.056Z,36.48
2023-05-05T13:11:37.856Z,36.92
2023-05-05T13:14:08.316Z,38.65
2023-05-05T13:16:35.916Z,38.96
2023-05-05T13:19:03.890Z,38.48
2023-05-05T13:21:31.629Z,40.12
2023-05-05T13:24:18.297Z,39.29
2023-05-05T13:26:47.662Z,38.06
2023-05-05T13:29:17.865Z,36.78
2023-05-05T13:31:49.290Z,36.83
2023-05-05T13:34:17.711Z,37.69
2023-05-05T13:36:45.393Z,38.29
2023-05-05T13:39:13.463Z,37.50
2023-05-05T13:41:41.579Z,36.33
2023-05-05T13:44:09.230Z,36.96
2023-05-05T13:46:38.334Z,36.12
2023-05-05T13:49:06.466Z,36.70
2023-05-05T13:51:34.863Z,35.91
2023-05-05T13:54:02.939Z,36.76
2023-05-05T13:56:31.202Z,35.27
2023-05-05T13:58:58.929Z,35.38
2023-05-05T14:01:27.297Z,36.10
2023-05-05T14:03:57.582Z,35.96
2023-05-05T14:06:25.863Z,38.05
2023-05-05T14:08:54.035Z,39.38
2023-05-05T14:11:21.688Z,36.39
2023-05-05T14:13:49.625Z,35.32
2023-05-05T14:16:18.157Z,38.55
2023-05-05T14:18:45.915Z,35.27
2023-05-05T14:21:15.538Z,38.59
2023-05-05T14:23:43.244Z,38.77
2023-05-05T14:26:10.927Z,35.54
2023-05-05T14:28:38.676Z,38.36
2023-05-05T14:31:07.719Z,36.97
2023-05-05T14:33:35.437Z,37.43
2023-05-05T14:36:03.694Z,36.96
2023-05-05T14:38:32.799Z,36.26
2023-05-05T14:41:00.473Z,35.00
2023-05-05T14:43:28.502Z,36.17
2023-05-05T14:45:58.217Z,36.94
2023-05-05T14:48:26.018Z,38.10
2023-05-05T14:50:54.764Z,37.18
2023-05-05T14:53:22.467Z,37.21
2023-05-05T14:55:51.935Z,35.10
2023-05-05T14:58:22.380Z,35.34
2023-05-05T15:00:49.888Z,36.57
2023-05-05T15:03:17.937Z,37.96
2023-05-05T15:05:45.597Z,36.46
2023-05-05T15:08:14.757Z,36.49
2023-05-05T15:10:42.438Z,36.31
2023-05-05T15:13:11.527Z,36.68
2023-05-05T15:15:39.788Z,36.65
2023-05-05T15:18:07.577Z,37.13
2023-05-05T15:20:35.532Z,37.45
2023-05-05T15:23:04.332Z,37.10
2023-05-05T15:25:32.101Z,37.93
2023-05-05T15:28:00.733Z,37.95
2023-05-05T15:30:30.022Z,37.46
2023-05-05T15:32:57.782Z,36.27
2023-05-05T15:35:25.830Z,37.43
2023-05-05T15:37:54.712Z,37.17
2023-05-05T15:40:22.718Z,37.38
2023-05-05T15:42:50.689Z,37.95
2023-05-05T15:45:18.619Z,37.71
2023-05-05T15:47:47.924Z,37.60
2023-05-05T15:50:16.253Z,38.61
2023-05-05T15:52:43.876Z,38.10
2023-05-05T15:55:11.757Z,37.67
2023-05-05T15:57:40.694Z,37.39
2023-05-05T16:00:09.485Z,38.45
2023-05-05T16:02:37.650Z,38.91
2023-05-05T16:05:07.425Z,39.91
2023-05-05T16:07:35.594Z,38.80
2023-05-05T16:10:03.467Z,38.76
2023-05-05T16:12:31.755Z,39.01
2023-05-05T16:14:59.675Z,39.20
2023-05-05T16:17:27.679Z,40.64
2023-05-05T16:19:55.827Z,39.39
2023-05-05T16:22:25.161Z,40.18
2023-05-05T16:24:52.774Z,39.61
2023-05-05T16:27:20.412Z,39.34
2023-05-05T16:29:48.359Z,40.36
2023-05-05T16:32:16.013Z,40.16
2023-05-05T16:34:45.238Z,39.69
2023-05-05T16:37:13.272Z,40.01
2023-05-05T16:39:42.515Z,40.06
2023-05-05T16:42:10.514Z,40.28
2023-05-05T16:44:38.201Z,41.64
2023-05-05T16:47:06.515Z,41.56
2023-05-05T16:49:34.146Z,41.90
2023-05-05T16:52:01.822Z,42.01
2023-05-05T16:54:29.829Z,41.29
2023-05-05T16:56:58.790Z,41.38
2023-05-05T16:59:26.787Z,41.44
2023-05-05T17:01:54.517Z,40.94
2023-05-05T17:04:22.528Z,41.65
2023-05-05T17:06:50.788Z,41.04
2023-05-05T17:09:18.667Z,41.15
2023-05-05T17:11:46.320Z,41.99
2023-05-05T17:14:16.582Z,42.42
2023-05-05T17:16:44.273Z,42.17
2023-05-05T17:19:11.968Z,42.07
2023-05-05T17:21:39.988Z,42.14
2023-05-05T17:24:08.669Z,42.48
2023-05-05T17:26:36.411Z,41.97
2023-05-05T17:29:04.439Z,42.39
2023-05-05T17:31:33.579Z,43.14
2023-05-05T17:34:01.631Z,43.45
2023-05-05T17:36:29.321Z,43.92
2023-05-05T17:38:57.331Z,44.32
2023-05-05T17:41:25.499Z,44.08
2023-05-05T17:43:53.428Z,44.59
2023-05-05T17:46:21.656Z,44.60
2023-05-05T17:48:51.083Z,44.70
2023-05-05T17:51:18.847Z,45.69
2023-05-05T17:53:46.877Z,46.11
2023-05-05T17:56:14.930Z,46.53
2023-05-05T17:58:42.569Z,46.41
2023-05-05T18:01:13.696Z,46.43
2023-05-05T18:03:41.965Z,45.90
2023-05-05T18:06:11.329Z,46.50
2023-05-05T18:08:38.982Z,46.48
2023-05-05T18:11:07.132Z,47.32
2023-05-05T18:13:34.859Z,47.14
2023-05-05T18:16:02.865Z,47.34
2023-05-05T18:18:31.115Z,47.53
2023-05-05T18:20:58.735Z,47.25
2023-05-05T18:23:27.785Z,47.80
2023-05-05T18:25:55.458Z,47.69
2023-05-05T18:28:23.204Z,48.80
2023-05-05T18:30:51.131Z,48.18
2023-05-05T18:33:20.131Z,47.99
2023-05-05T18:35:48.091Z,48.45
2023-05-05T18:38:15.709Z,48.00
2023-05-05T18:40:46.173Z,48.38
2023-05-05T18:43:13.712Z,48.52
2023-05-05T18:45:41.790Z,48.74
2023-05-05T18:48:09.929Z,48.64
2023-05-05T18:50:38.068Z,49.46
2023-05-05T18:53:05.922Z,49.83
2023-05-05T18:55:33.938Z,48.93
2023-05-05T18:58:02.962Z,48.76
2023-05-05T19:00:30.728Z,48.73
2023-05-05T19:02:58.908Z,48.81
2023-05-05T19:05:27.652Z,49.43
2023-05-05T19:07:55.327Z,49.44
2023-05-05T19:10:23.679Z,50.18
2023-05-05T19:12:51.398Z,49.42
2023-05-05T19:15:21.198Z,49.40
2023-05-05T19:17:48.913Z,50.15
2023-05-05T19:20:16.638Z,49.83
2023-05-05T19:22:44.779Z,49.65
2023-05-05T19:25:14.224Z,49.40
2023-05-05T19:27:42.757Z,49.63
2023-05-05T19:30:11.569Z,49.25
2023-05-05T19:32:40.590Z,49.52
2023-05-05T19:35:11.558Z,50.26
2023-05-05T19:37:39.978Z,50.10
2023-05-05T19:40:09.072Z,49.90
2023-05-05T19:42:37.289Z,50.56
2023-05-05T19:45:05.654Z,50.63
2023-05-05T19:47:33.389Z,50.72
2023-05-05T19:50:02.815Z,50.66
2023-05-05T19:52:30.465Z,50.39
2023-05-05T19:54:58.470Z,50.95
2023-05-05T19:57:26.685Z,50.45
2023-05-05T19:59:54.363Z,50.73
2023-05-05T20:02:24.374Z,50.88
2023-05-05T20:04:52.026Z,51.23
2023-05-05T20:07:21.450Z,51.22
2023-05-05T20:09:49.840Z,51.54
2023-05-05T20:12:20.223Z,51.26
2023-05-05T20:14:47.967Z,50.99
2023-05-05T20:17:20.269Z,50.85
2023-05-05T20:19:48.433Z,51.06
2023-05-05T20:22:16.607Z,51.41
2023-05-05T20:24:45.690Z,50.90
2023-05-05T20:27:13.324Z,50.74
2023-05-05T20:29:41.305Z,50.99
2023-05-05T20:32:08.998Z,51.20
2023-05-05T20:34:38.540Z,51.36
2023-05-05T20:37:06.244Z,51.08
2023-05-05T20:39:33.934Z,51.29
2023-05-05T20:42:03.612Z,51.53
2023-05-05T20:44:31.798Z,51.12
2023-05-05T20:46:59.521Z,52.19
2023-05-05T20:49:27.544Z,52.31
2023-05-05T20:51:55.297Z,51.64
2023-05-05T20:54:22.911Z,51.73
2023-05-05T20:56:51.723Z,52.13
2023-05-05T20:59:20.660Z,52.14
2023-05-05T21:01:48.724Z,52.39
2023-05-05T21:04:16.479Z,52.52
2023-05-05T21:06:44.424Z,52.96
2023-05-05T21:09:12.083Z,52.66
2023-05-05T21:11:39.753Z,52.20
2023-05-05T21:14:08.467Z,52.41
2023-05-05T21:16:37.581Z,52.21
2023-05-05T21:19:05.658Z,52.41
2023-05-05T21:21:33.755Z,52.33
2023-05-05T21:24:02.005Z,52.37
2023-05-05T21:26:29.713Z,52.99
2023-05-05T21:28:57.829Z,53.01
2023-05-05T21:31:25.491Z,52.75
2023-05-05T21:33:54.605Z,53.10
2023-05-05T21:36:22.907Z,52.48
2023-05-05T21:38:50.665Z,52.30
2023-05-05T21:41:18.762Z,52.31
2023-05-05T21:43:46.485Z,52.69
2023-05-05T21:46:14.426Z,51.81
2023-05-05T21:48:42.564Z,52.15
2023-05-05T21:51:11.587Z,52.21
2023-05-05T21:53:40.932Z,52.92
2023-05-05T21:56:10.240Z,52.96
2023-05-05T21:58:38.412Z,52.47
2023-05-05T22:01:06.164Z,52.90
2023-05-05T22:03:35.273Z,52.82
2023-05-05T22:06:03.861Z,53.49
2023-05-05T22:08:32.867Z,53.27
2023-05-05T22:11:00.972Z,53.74
2023-05-05T22:13:28.718Z,52.83
2023-05-05T22:15:57.448Z,53.48
2023-05-05T22:18:25.121Z,53.07
2023-05-05T22:20:52.977Z,54.60
2023-05-05T22:23:21.129Z,53.20
2023-05-05T22:25:50.400Z,52.76
2023-05-05T22:28:18.501Z,53.46
2023-05-05T22:30:46.352Z,52.93
2023-05-05T22:33:14.145Z,53.91
2023-05-05T22:35:42.978Z,53.93
2023-05-05T22:38:10.639Z,54.40
2023-05-05T22:40:38.329Z,54.36
2023-05-05T22:43:07.873Z,55.86
2023-05-05T22:45:35.746Z,56.79
2023-05-05T22:48:04.093Z,56.50
2023-05-05T22:50:31.873Z,54.97
2023-05-05T22:52:59.626Z,54.54
2023-05-05T22:55:28.573Z,55.73
2023-05-05T22:57:56.314Z,55.63
2023-05-05T23:00:25.993Z,57.34
2023-05-05T23:02:53.660Z,57.70
2023-05-05T23:05:21.586Z,59.06
2023-05-05T23:07:49.606Z,60.48
2023-05-05T23:10:17.388Z,61.29
2023-05-05T23:12:45.435Z,62.99
2023-05-05T23:15:13.302Z,61.24
2023-05-05T23:17:43.604Z,62.62
2023-05-05T23:20:13.164Z,64.44
2023-05-05T23:22:40.914Z,65.26
2023-05-05T23:25:10.125Z,61.52
2023-05-05T23:27:39.466Z,62.18
2023-05-05T23:30:08.847Z,61.20
2023-05-05T23:32:36.653Z,61.48
2023-05-05T23:35:07.831Z,61.63
2023-05-05T23:37:35.840Z,61.62
2023-05-05T23:40:03.579Z,61.71
2023-05-05T23:42:31.649Z,62.17
2023-05-05T23:44:59.366Z,62.58
2023-05-05T23:47:27.151Z,63.90
2023-05-05T23:49:55.193Z,66.57
2023-05-05T23:52:24.249Z,65.81
2023-05-05T23:54:51.919Z,67.46
2023-05-05T23:57:19.886Z,69.49
2023-05-05T23:59:48.021Z,71.97
